Time;durP1;ratioP1;P1;durP2;ratioP2;P2;SDS_P1;SDS_P2;PMS_P1;PMS_P2;Temp;Humidity;BMP_temperature;BMP_pressure;BME280_temperature;BME280_humidity;BME280_pressure;Samples;Min_cycle;Max_cycle;Signal;HPM_P1;HPM_P2
2023/08/23 00:01:23;;;;;;;;;;;26.90;99.90;;;;;;5097059;28;19939;-73
2023/08/23 00:03:49;;;;;;;;;;;26.90;99.90;;;;;;5097550;28;19904;-73
2023/08/23 00:06:15;;;;;;;;;;;26.80;99.90;;;;;;5097134;28;19952;-73
2023/08/23 00:08:40;;;;;;;;;;;26.80;99.90;;;;;;5097487;28;19911;-73
2023/08/23 00:11:06;;;;;;;;;;;26.70;99.90;;;;;;5097198;28;19904;-73
2023/08/23 00:13:31;;;;;;;;;;;26.60;99.90;;;;;;5097299;28;19904;-73
2023/08/23 00:15:57;;;;;;;;;;;26.70;99.90;;;;;;5096897;28;19908;-73
2023/08/23 00:18:22;;;;;;;;;;;26.70;99.90;;;;;;5095559;28;19908;-73
2023/08/23 00:20:48;;;;;;;;;;;26.80;99.90;;;;;;5092032;28;19904;-73
2023/08/23 00:23:13;;;;;;;;;;;26.80;99.90;;;;;;5095726;28;19903;-73
2023/08/23 00:25:39;;;;;;;;;;;26.80;99.90;;;;;;5096992;28;19969;-73
2023/08/23 00:28:05;;;;;;;;;;;26.70;99.90;;;;;;5097001;28;19915;-73
2023/08/23 00:30:30;;;;;;;;;;;26.70;99.90;;;;;;5096934;28;19908;-73
2023/08/23 00:32:56;;;;;;;;;;;26.60;99.90;;;;;;5089628;28;19954;-73
2023/08/23 00:35:21;;;;;;;;;;;26.60;99.90;;;;;;5090493;28;19951;-73
2023/08/23 00:37:47;;;;;;;;;;;26.60;99.90;;;;;;5097123;28;19947;-73
2023/08/23 00:40:12;;;;;;;;;;;26.50;99.90;;;;;;5096533;28;19904;-73
2023/08/23 00:42:38;;;;;;;;;;;26.50;99.90;;;;;;5096657;28;20375;-73
2023/08/23 00:45:03;;;;;;;;;;;26.60;99.90;;;;;;5096762;28;20384;-73
2023/08/23 00:47:29;;;;;;;;;;;26.50;99.90;;;;;;5096474;28;20280;-73
2023/08/23 00:49:57;;;;;;;;;;;26.50;99.90;;;;;;5096610;28;20378;-73
2023/08/23 00:52:23;;;;;;;;;;;26.40;99.90;;;;;;5096537;28;19969;-73
2023/08/23 00:54:49;;;;;;;;;;;26.40;99.90;;;;;;5096310;28;19989;-73
2023/08/23 00:57:15;;;;;;;;;;;26.40;99.90;;;;;;5096468;28;19908;-73
2023/08/23 00:59:41;;;;;;;;;;;26.40;99.90;;;;;;5096089;28;19904;-73
2023/08/23 01:02:08;;;;;;;;;;;26.40;99.90;;;;;;5087469;28;20498;-73
2023/08/23 01:04:33;;;;;;;;;;;26.30;99.90;;;;;;5089595;28;19912;-73
2023/08/23 01:07:02;;;;;;;;;;;26.20;99.90;;;;;;5096126;28;20007;-73
2023/08/23 01:09:39;;;;;;;;;;;26.20;99.90;;;;;;5096294;28;20521;-73
2023/08/23 01:12:28;;;;;;;;;;;26.10;99.90;;;;;;5091857;28;20426;-73
2023/08/23 01:15:02;;;;;;;;;;;26.10;99.90;;;;;;5086450;28;19906;-73
2023/08/23 01:17:29;;;;;;;;;;;26.10;99.90;;;;;;5095507;28;19908;-73
2023/08/23 01:19:55;;;;;;;;;;;26.00;99.90;;;;;;5096004;28;19908;-73
2023/08/23 01:22:21;;;;;;;;;;;26.00;99.90;;;;;;5091100;28;19904;-73
2023/08/23 01:24:47;;;;;;;;;;;26.00;99.90;;;;;;5095459;28;19957;-73
2023/08/23 01:27:13;;;;;;;;;;;25.90;99.90;;;;;;5094308;28;19923;-73
2023/08/23 01:29:39;;;;;;;;;;;25.90;99.90;;;;;;5094288;28;19904;-73
2023/08/23 01:32:23;;;;;;;;;;;25.90;99.90;;;;;;5090475;28;19958;-74
2023/08/23 01:34:51;;;;;;;;;;;25.80;99.90;;;;;;5084602;28;19904;-74
2023/08/23 01:37:17;;;;;;;;;;;25.80;99.90;;;;;;5095838;28;20348;-73
2023/08/23 01:39:43;;;;;;;;;;;25.80;99.90;;;;;;5095832;28;19908;-74
2023/08/23 01:42:09;;;;;;;;;;;25.70;99.90;;;;;;5094439;28;20386;-74
2023/08/23 01:44:35;;;;;;;;;;;25.70;99.90;;;;;;5095735;28;19907;-74
2023/08/23 01:47:00;;;;;;;;;;;25.60;99.90;;;;;;5095594;28;20344;-73
2023/08/23 01:49:26;;;;;;;;;;;25.60;99.90;;;;;;5095749;28;20320;-74
2023/08/23 01:51:51;;;;;;;;;;;25.60;99.90;;;;;;5094640;28;19908;-74
2023/08/23 01:54:17;;;;;;;;;;;25.50;99.90;;;;;;5095701;28;19966;-74
2023/08/23 01:56:42;;;;;;;;;;;25.50;99.90;;;;;;5094092;28;19908;-74
2023/08/23 01:59:08;;;;;;;;;;;25.50;99.90;;;;;;5094323;28;19908;-74
2023/08/23 02:01:34;;;;;;;;;;;25.50;99.90;;;;;;5095439;28;19907;-74
2023/08/23 02:03:59;;;;;;;;;;;25.40;99.90;;;;;;5095895;28;19991;-74
2023/08/23 02:06:25;;;;;;;;;;;25.40;99.90;;;;;;5095795;28;19912;-73
2023/08/23 02:08:50;;;;;;;;;;;25.30;99.90;;;;;;5095570;28;20364;-73
2023/08/23 02:11:16;;;;;;;;;;;25.40;99.90;;;;;;5093917;28;19908;-74
2023/08/23 02:13:41;;;;;;;;;;;25.30;99.90;;;;;;5095478;28;19907;-73
2023/08/23 02:16:07;;;;;;;;;;;25.30;99.90;;;;;;5093491;28;19911;-73
2023/08/23 02:18:32;;;;;;;;;;;25.30;99.90;;;;;;5099545;28;19903;-74
2023/08/23 02:20:58;;;;;;;;;;;25.20;99.90;;;;;;5094804;28;19955;-73
2023/08/23 02:23:23;;;;;;;;;;;25.20;99.90;;;;;;5099521;28;19947;-74
2023/08/23 02:25:49;;;;;;;;;;;25.10;99.90;;;;;;5094082;28;19965;-74
2023/08/23 02:28:14;;;;;;;;;;;25.10;99.90;;;;;;5099582;28;19916;-74
2023/08/23 02:30:40;;;;;;;;;;;25.10;99.90;;;;;;5098994;28;19904;-74
2023/08/23 02:33:06;;;;;;;;;;;25.00;99.90;;;;;;5099395;28;19904;-74
2023/08/23 02:35:31;;;;;;;;;;;25.00;99.90;;;;;;5097719;28;19915;-73
2023/08/23 02:37:57;;;;;;;;;;;24.90;99.90;;;;;;5099364;28;19904;-73
2023/08/23 02:40:23;;;;;;;;;;;24.90;99.90;;;;;;5099025;28;19911;-73
2023/08/23 02:42:48;;;;;;;;;;;24.90;99.90;;;;;;5097778;28;19911;-73
2023/08/23 02:45:14;;;;;;;;;;;24.80;99.90;;;;;;5098785;28;19920;-73
2023/08/23 02:47:40;;;;;;;;;;;24.80;99.90;;;;;;5097537;28;20332;-73
2023/08/23 02:50:05;;;;;;;;;;;24.80;99.90;;;;;;5098951;28;19958;-73
2023/08/23 02:52:31;;;;;;;;;;;24.80;99.90;;;;;;5099069;28;20046;-73
2023/08/23 02:54:56;;;;;;;;;;;24.80;99.90;;;;;;5098541;28;19908;-73
2023/08/23 02:57:22;;;;;;;;;;;24.80;99.90;;;;;;5098709;28;19971;-73
2023/08/23 02:59:47;;;;;;;;;;;24.70;99.90;;;;;;5098651;28;19908;-73
2023/08/23 03:02:13;;;;;;;;;;;24.70;99.90;;;;;;5098398;28;19952;-73
2023/08/23 03:04:38;;;;;;;;;;;24.60;99.90;;;;;;5098434;28;19965;-73
2023/08/23 03:07:04;;;;;;;;;;;24.60;99.90;;;;;;5096386;28;19937;-73
2023/08/23 03:09:29;;;;;;;;;;;24.60;99.90;;;;;;5096805;28;20000;-73
2023/08/23 03:11:55;;;;;;;;;;;24.60;99.90;;;;;;5098293;28;19998;-73
2023/08/23 03:14:20;;;;;;;;;;;24.60;99.90;;;;;;5097199;28;19912;-74
2023/08/23 03:16:46;;;;;;;;;;;24.60;99.90;;;;;;5098509;28;19908;-74
2023/08/23 03:19:11;;;;;;;;;;;24.60;99.90;;;;;;5098348;28;20299;-74
2023/08/23 03:21:37;;;;;;;;;;;24.50;99.90;;;;;;5098321;28;20608;-73
2023/08/23 03:24:03;;;;;;;;;;;24.50;99.90;;;;;;5098259;28;20006;-73
2023/08/23 03:26:28;;;;;;;;;;;24.50;99.90;;;;;;5097791;28;20010;-74
2023/08/23 03:28:54;;;;;;;;;;;24.50;99.90;;;;;;5097897;28;20376;-74
2023/08/23 03:31:19;;;;;;;;;;;24.50;99.90;;;;;;5098180;28;20416;-74
2023/08/23 03:33:45;;;;;;;;;;;24.40;99.90;;;;;;5098390;28;19908;-74
2023/08/23 03:36:10;;;;;;;;;;;24.40;99.90;;;;;;5098254;28;20351;-74
2023/08/23 03:38:36;;;;;;;;;;;24.40;99.90;;;;;;5096669;28;20520;-74
2023/08/23 03:41:01;;;;;;;;;;;24.30;99.90;;;;;;5098252;28;20322;-73
2023/08/23 03:43:28;;;;;;;;;;;24.30;99.90;;;;;;5097695;28;20329;-73
2023/08/23 03:45:54;;;;;;;;;;;24.20;99.90;;;;;;5096609;28;19908;-74
2023/08/23 03:48:19;;;;;;;;;;;24.20;99.90;;;;;;5097628;28;19957;-74
2023/08/23 03:50:45;;;;;;;;;;;24.20;99.90;;;;;;5098064;28;20737;-74
2023/08/23 03:53:10;;;;;;;;;;;24.20;99.90;;;;;;5096187;28;19911;-74
2023/08/23 03:55:37;;;;;;;;;;;24.20;99.90;;;;;;5098122;28;19930;-74
2023/08/23 03:58:05;;;;;;;;;;;24.20;99.90;;;;;;5097850;28;19904;-74
2023/08/23 04:00:31;;;;;;;;;;;24.20;99.90;;;;;;5097742;28;19904;-74
2023/08/23 04:02:56;;;;;;;;;;;24.20;99.90;;;;;;5097524;28;19915;-74
2023/08/23 04:05:22;;;;;;;;;;;24.10;99.90;;;;;;5097761;28;19955;-74
2023/08/23 04:07:47;;;;;;;;;;;24.10;99.90;;;;;;5095995;28;19915;-74
2023/08/23 04:10:13;;;;;;;;;;;24.00;99.90;;;;;;5096403;28;19904;-74
2023/08/23 04:12:38;;;;;;;;;;;24.00;99.90;;;;;;5096129;28;19904;-74
2023/08/23 04:15:04;;;;;;;;;;;24.00;99.90;;;;;;5097608;28;20417;-74
2023/08/23 04:17:30;;;;;;;;;;;24.00;99.90;;;;;;5095775;28;19914;-73
2023/08/23 04:19:55;;;;;;;;;;;24.00;99.90;;;;;;5097236;28;20291;-74
2023/08/23 04:22:21;;;;;;;;;;;24.00;99.90;;;;;;5096564;28;20003;-74
2023/08/23 04:24:47;;;;;;;;;;;24.00;99.90;;;;;;5097145;28;19919;-74
2023/08/23 04:27:13;;;;;;;;;;;23.90;99.90;;;;;;5095352;28;20383;-74
2023/08/23 04:29:38;;;;;;;;;;;23.90;99.90;;;;;;5097342;28;19966;-74
2023/08/23 04:32:09;;;;;;;;;;;23.90;99.90;;;;;;5096931;28;20007;-74
2023/08/23 04:34:34;;;;;;;;;;;23.90;99.90;;;;;;5097340;28;19904;-74
2023/08/23 04:37:00;;;;;;;;;;;23.90;99.90;;;;;;5097163;28;19914;-74
2023/08/23 04:39:25;;;;;;;;;;;23.90;99.90;;;;;;5097101;28;19970;-74
2023/08/23 04:41:51;;;;;;;;;;;23.80;99.90;;;;;;5096511;28;19904;-74
2023/08/23 04:44:16;;;;;;;;;;;23.80;99.90;;;;;;5097031;28;19904;-74
2023/08/23 04:46:42;;;;;;;;;;;23.70;99.90;;;;;;5096729;28;19908;-73
2023/08/23 04:49:08;;;;;;;;;;;23.70;99.90;;;;;;5095551;28;19908;-73
2023/08/23 04:51:33;;;;;;;;;;;23.70;99.90;;;;;;5095214;28;19908;-74
2023/08/23 04:53:59;;;;;;;;;;;23.70;99.90;;;;;;5096925;28;19904;-74
2023/08/23 04:56:24;;;;;;;;;;;23.70;99.90;;;;;;5096574;28;19907;-73
2023/08/23 04:58:50;;;;;;;;;;;23.60;99.90;;;;;;5096750;28;19911;-74
2023/08/23 05:01:16;;;;;;;;;;;23.60;99.90;;;;;;5096411;28;19915;-74
2023/08/23 05:03:41;;;;;;;;;;;23.60;99.90;;;;;;5096684;28;19907;-74
2023/08/23 05:06:07;;;;;;;;;;;23.60;99.90;;;;;;5096212;28;19904;-74
2023/08/23 05:08:33;;;;;;;;;;;23.60;99.90;;;;;;5095229;28;19903;-74
2023/08/23 05:10:58;;;;;;;;;;;23.60;99.90;;;;;;5096275;28;20731;-74
2023/08/23 05:13:24;;;;;;;;;;;23.60;99.90;;;;;;5096542;28;19966;-74
2023/08/23 05:15:53;;;;;;;;;;;23.60;99.90;;;;;;5095737;28;20014;-74
2023/08/23 05:18:18;;;;;;;;;;;23.60;99.90;;;;;;5096033;28;19969;-74
2023/08/23 05:20:45;;;;;;;;;;;23.60;99.90;;;;;;5095623;28;19907;-74
2023/08/23 05:23:10;;;;;;;;;;;23.50;99.90;;;;;;5094943;28;19904;-74
2023/08/23 05:25:36;;;;;;;;;;;23.60;99.90;;;;;;5094702;28;19949;-74
2023/08/23 05:28:01;;;;;;;;;;;23.60;99.90;;;;;;5095822;28;19938;-74
2023/08/23 05:30:27;;;;;;;;;;;23.60;99.90;;;;;;5094707;28;19908;-74
2023/08/23 05:32:52;;;;;;;;;;;23.60;99.90;;;;;;5095979;28;19911;-74
2023/08/23 05:35:18;;;;;;;;;;;23.60;99.90;;;;;;5096011;28;19904;-74
2023/08/23 05:37:43;;;;;;;;;;;23.70;99.90;;;;;;5096254;28;19952;-74
2023/08/23 05:40:09;;;;;;;;;;;23.60;99.90;;;;;;5095910;28;19904;-74
2023/08/23 05:42:34;;;;;;;;;;;23.70;99.90;;;;;;5095930;28;19914;-74
2023/08/23 05:45:00;;;;;;;;;;;23.70;99.90;;;;;;5094496;28;19908;-73
2023/08/23 05:47:25;;;;;;;;;;;23.80;99.90;;;;;;5095694;28;20033;-71
2023/08/23 05:49:51;;;;;;;;;;;23.80;99.90;;;;;;5094921;28;19904;-71
2023/08/23 05:52:17;;;;;;;;;;;23.90;99.90;;;;;;5095909;28;19929;-71
2023/08/23 05:54:42;;;;;;;;;;;23.90;99.90;;;;;;5095949;28;19930;-71
2023/08/23 05:57:08;;;;;;;;;;;24.00;99.90;;;;;;5095827;28;19936;-71
2023/08/23 05:59:33;;;;;;;;;;;24.20;99.90;;;;;;5091284;28;19928;-71
2023/08/23 06:01:59;;;;;;;;;;;24.20;99.90;;;;;;5085273;28;19911;-71
2023/08/23 06:04:24;;;;;;;;;;;24.30;99.90;;;;;;5095643;28;19927;-72
2023/08/23 06:06:50;;;;;;;;;;;24.40;99.90;;;;;;5095625;28;19912;-72
2023/08/23 06:09:17;;;;;;;;;;;24.50;99.90;;;;;;5090907;28;19957;-72
2023/08/23 06:11:42;;;;;;;;;;;24.50;99.90;;;;;;5079451;28;19904;-72
2023/08/23 06:14:19;;;;;;;;;;;24.60;99.90;;;;;;5083121;28;19909;-72
2023/08/23 06:16:45;;;;;;;;;;;24.70;99.90;;;;;;5087266;28;19918;-73
2023/08/23 06:19:11;;;;;;;;;;;24.80;99.90;;;;;;5089753;28;19908;-72
2023/08/23 06:21:37;;;;;;;;;;;24.90;99.90;;;;;;5078262;28;20378;-72
2023/08/23 06:24:03;;;;;;;;;;;25.00;99.90;;;;;;5092959;28;19959;-72
2023/08/23 06:26:29;;;;;;;;;;;25.10;99.90;;;;;;5095400;28;20372;-72
2023/08/23 06:28:54;;;;;;;;;;;25.20;99.90;;;;;;5093678;28;20007;-72
2023/08/23 06:31:20;;;;;;;;;;;25.20;99.90;;;;;;5095176;28;19995;-72
2023/08/23 06:33:46;;;;;;;;;;;25.30;99.90;;;;;;5093774;28;19934;-72
2023/08/23 06:36:11;;;;;;;;;;;25.40;99.90;;;;;;5095344;28;19971;-73
2023/08/23 06:38:37;;;;;;;;;;;25.50;99.90;;;;;;5095097;28;19904;-73
2023/08/23 06:41:02;;;;;;;;;;;25.50;99.90;;;;;;5095355;28;20359;-72
2023/08/23 06:43:28;;;;;;;;;;;25.60;99.90;;;;;;5095280;28;19954;-72
2023/08/23 06:45:53;;;;;;;;;;;25.70;99.90;;;;;;5094827;28;19916;-72
2023/08/23 06:48:19;;;;;;;;;;;25.80;99.90;;;;;;5093761;28;19912;-72
2023/08/23 06:50:45;;;;;;;;;;;25.90;99.90;;;;;;5081473;28;19912;-72
2023/08/23 06:53:10;;;;;;;;;;;26.00;99.90;;;;;;5088409;28;19931;-72
2023/08/23 06:55:40;;;;;;;;;;;26.20;99.90;;;;;;5088691;28;19929;-72
2023/08/23 06:58:07;;;;;;;;;;;26.20;99.90;;;;;;5086370;28;19996;-72
2023/08/23 07:00:33;;;;;;;;;;;26.30;99.90;;;;;;5088583;28;19904;-72
2023/08/23 07:02:59;;;;;;;;;;;26.40;99.90;;;;;;5082553;28;19943;-72
2023/08/23 07:05:24;;;;;;;;;;;26.50;99.90;;;;;;5097455;28;20423;-72
2023/08/23 07:07:50;;;;;;;;;;;26.60;99.90;;;;;;5098634;28;19915;-72
2023/08/23 07:10:16;;;;;;;;;;;26.60;99.90;;;;;;5098546;28;20451;-73
2023/08/23 07:12:41;;;;;;;;;;;26.70;99.90;;;;;;5098535;28;19919;-72
2023/08/23 07:15:07;;;;;;;;;;;26.70;99.90;;;;;;5098774;28;19946;-72
2023/08/23 07:17:34;;;;;;;;;;;26.80;99.90;;;;;;5098231;28;19912;-73
2023/08/23 07:20:00;;;;;;;;;;;26.90;99.90;;;;;;5095795;28;19912;-72
2023/08/23 07:22:25;;;;;;;;;;;27.00;99.90;;;;;;5090070;28;19903;-73
2023/08/23 07:24:51;;;;;;;;;;;27.10;99.90;;;;;;5098358;28;20372;-73
2023/08/23 07:27:16;;;;;;;;;;;27.20;99.90;;;;;;5096698;28;19916;-73
2023/08/23 07:29:42;;;;;;;;;;;27.40;99.90;;;;;;5086754;28;19908;-72
2023/08/23 07:32:07;;;;;;;;;;;27.50;99.90;;;;;;5087616;28;19913;-72
2023/08/23 07:34:33;;;;;;;;;;;27.60;99.90;;;;;;5089130;28;19908;-72
2023/08/23 07:36:58;;;;;;;;;;;27.70;99.90;;;;;;5087445;28;19931;-72
2023/08/23 07:39:25;;;;;;;;;;;27.90;99.90;;;;;;5096586;28;19904;-72
2023/08/23 07:41:50;;;;;;;;;;;27.90;99.90;;;;;;5092349;28;19912;-72
2023/08/23 07:44:16;;;;;;;;;;;28.10;99.90;;;;;;5095276;28;19961;-72
2023/08/23 07:46:41;;;;;;;;;;;28.30;99.90;;;;;;5095173;28;19908;-73
2023/08/23 07:49:07;;;;;;;;;;;28.40;99.90;;;;;;5095283;28;19904;-72
2023/08/23 07:51:33;;;;;;;;;;;28.60;99.90;;;;;;5093982;28;19908;-72
2023/08/23 07:53:58;;;;;;;;;;;28.70;99.90;;;;;;5096768;28;19912;-72
2023/08/23 07:56:23;;;;;;;;;;;28.90;99.90;;;;;;5093292;28;19974;-72
2023/08/23 07:58:49;;;;;;;;;;;28.90;99.90;;;;;;5087824;28;19912;-72
2023/08/23 08:01:14;;;;;;;;;;;29.00;99.90;;;;;;5092668;28;19916;-72
2023/08/23 08:03:40;;;;;;;;;;;29.10;99.90;;;;;;5094571;28;19915;-72
2023/08/23 08:06:06;;;;;;;;;;;29.20;99.90;;;;;;5094547;28;19912;-72
2023/08/23 08:08:32;;;;;;;;;;;29.30;99.90;;;;;;5093091;28;19912;-73
2023/08/23 08:10:58;;;;;;;;;;;29.50;99.90;;;;;;5092784;28;19908;-73
2023/08/23 08:13:23;;;;;;;;;;;29.60;99.90;;;;;;5095192;28;20326;-73
2023/08/23 08:15:49;;;;;;;;;;;29.70;99.90;;;;;;5089725;28;19908;-73
2023/08/23 08:18:15;;;;;;;;;;;29.80;99.90;;;;;;5094256;28;19948;-72
2023/08/23 08:20:40;;;;;;;;;;;29.90;99.90;;;;;;5091676;28;19904;-73
2023/08/23 08:23:06;;;;;;;;;;;30.00;99.90;;;;;;5093034;28;20789;-73
2023/08/23 08:25:31;;;;;;;;;;;30.10;99.90;;;;;;5092468;28;19923;-73
2023/08/23 08:27:57;;;;;;;;;;;30.20;99.90;;;;;;5090488;28;20976;-71
2023/08/23 08:30:23;;;;;;;;;;;30.30;99.90;;;;;;5091180;28;19904;-71
2023/08/23 08:32:48;;;;;;;;;;;30.40;99.90;;;;;;5092873;28;20725;-71
2023/08/23 08:35:14;;;;;;;;;;;30.40;99.90;;;;;;5092545;28;19915;-71
2023/08/23 08:37:39;;;;;;;;;;;30.50;99.90;;;;;;5093553;28;19904;-73
2023/08/23 08:40:05;;;;;;;;;;;30.60;99.90;;;;;;5093783;28;19983;-71
2023/08/23 08:42:31;;;;;;;;;;;30.70;99.90;;;;;;5095579;28;19971;-71
2023/08/23 08:44:57;;;;;;;;;;;30.80;99.90;;;;;;5091376;28;19930;-70
2023/08/23 08:47:23;;;;;;;;;;;30.90;99.90;;;;;;5094571;28;19911;-71
2023/08/23 08:49:49;;;;;;;;;;;30.90;99.90;;;;;;5090657;28;19904;-72
2023/08/23 08:52:16;;;;;;;;;;;31.00;99.90;;;;;;5092222;28;20394;-73
2023/08/23 08:54:44;;;;;;;;;;;31.10;99.90;;;;;;5094529;28;19953;-73
2023/08/23 08:57:10;;;;;;;;;;;31.20;99.90;;;;;;5091692;28;19903;-73
2023/08/23 08:59:37;;;;;;;;;;;31.30;99.90;;;;;;5092764;28;19908;-73
2023/08/23 09:02:03;;;;;;;;;;;31.40;99.90;;;;;;5089822;28;19904;-73
2023/08/23 09:04:28;;;;;;;;;;;31.50;99.90;;;;;;5088591;28;19911;-73
2023/08/23 09:06:55;;;;;;;;;;;31.60;99.90;;;;;;5093163;28;19957;-73
2023/08/23 09:09:20;;;;;;;;;;;31.60;99.90;;;;;;5091508;28;19905;-73
2023/08/23 09:11:46;;;;;;;;;;;31.70;99.90;;;;;;5094315;28;19907;-73
2023/08/23 09:14:15;;;;;;;;;;;31.80;99.90;;;;;;5089632;28;19932;-72
2023/08/23 09:16:40;;;;;;;;;;;31.90;99.90;;;;;;5091020;28;19904;-73
2023/08/23 09:19:12;;;;;;;;;;;32.00;99.90;;;;;;5088933;28;19912;-73
2023/08/23 09:21:44;;;;;;;;;;;32.10;99.90;;;;;;5095133;28;20455;-73
2023/08/23 09:24:10;;;;;;;;;;;32.40;99.90;;;;;;5090947;28;19908;-74
2023/08/23 09:26:36;;;;;;;;;;;32.50;99.90;;;;;;5090978;28;19916;-73
2023/08/23 09:29:02;;;;;;;;;;;32.50;99.90;;;;;;5091474;28;20280;-72
2023/08/23 09:31:28;;;;;;;;;;;32.60;99.90;;;;;;5091755;28;19904;-72
2023/08/23 09:33:53;;;;;;;;;;;32.60;99.90;;;;;;5093622;28;19907;-73
2023/08/23 09:36:25;;;;;;;;;;;32.60;99.90;;;;;;5092048;28;19907;-73
2023/08/23 09:38:51;;;;;;;;;;;32.70;99.90;;;;;;5088477;28;20031;-73
2023/08/23 09:41:17;;;;;;;;;;;32.90;99.90;;;;;;5093955;28;20383;-73
2023/08/23 09:43:42;;;;;;;;;;;32.90;99.90;;;;;;5089061;28;19908;-73
2023/08/23 09:46:09;;;;;;;;;;;33.10;99.90;;;;;;5091821;28;20488;-72
2023/08/23 09:48:36;;;;;;;;;;;33.10;99.90;;;;;;5090140;28;19912;-73
2023/08/23 09:51:02;;;;;;;;;;;33.10;99.90;;;;;;5091822;28;19911;-73
2023/08/23 09:53:31;;;;;;;;;;;33.30;99.90;;;;;;5093026;28;19904;-73
2023/08/23 09:55:57;;;;;;;;;;;33.30;99.90;;;;;;5089879;28;19955;-73
2023/08/23 09:58:23;;;;;;;;;;;33.50;99.90;;;;;;5091217;28;19908;-73
2023/08/23 10:00:49;;;;;;;;;;;33.60;99.90;;;;;;5093396;28;19907;-72
2023/08/23 10:03:15;;;;;;;;;;;33.70;99.90;;;;;;5091499;28;19919;-73
2023/08/23 10:05:42;;;;;;;;;;;33.70;99.90;;;;;;5093428;28;20344;-73
2023/08/23 10:08:09;;;;;;;;;;;33.80;99.90;;;;;;5090357;28;19912;-72
2023/08/23 10:10:36;;;;;;;;;;;33.90;99.90;;;;;;5089438;28;19940;-73
2023/08/23 10:13:06;;;;;;;;;;;34.00;99.90;;;;;;5090300;28;20392;-73
2023/08/23 10:15:32;;;;;;;;;;;34.20;99.90;;;;;;5088266;28;19923;-73
2023/08/23 10:17:59;;;;;;;;;;;34.20;99.90;;;;;;5089749;28;19907;-73
2023/08/23 10:20:25;;;;;;;;;;;34.20;99.90;;;;;;5093573;28;19911;-74
2023/08/23 10:22:57;;;;;;;;;;;34.20;99.90;;;;;;5091754;28;20284;-73
2023/08/23 10:25:22;;;;;;;;;;;34.20;99.90;;;;;;5089494;28;19919;-73
2023/08/23 10:27:51;;;;;;;;;;;34.40;99.90;;;;;;5092813;28;19916;-73
2023/08/23 10:30:26;;;;;;;;;;;34.30;99.90;;;;;;5089902;28;19995;-73
2023/08/23 10:33:06;;;;;;;;;;;34.50;99.90;;;;;;5092973;28;20380;-73
2023/08/23 10:35:32;;;;;;;;;;;34.50;99.90;;;;;;5092719;28;19931;-73
2023/08/23 10:37:58;;;;;;;;;;;34.50;98.90;;;;;;5095797;28;19935;-73
2023/08/23 10:40:28;;;;;;;;;;;34.60;99.40;;;;;;5096635;28;19915;-73
2023/08/23 10:42:54;;;;;;;;;;;34.60;99.90;;;;;;5089045;28;19966;-73
2023/08/23 10:45:19;;;;;;;;;;;34.70;99.70;;;;;;5089896;28;19908;-73
2023/08/23 10:47:48;;;;;;;;;;;34.60;99.00;;;;;;5095314;28;19930;-73
2023/08/23 10:50:14;;;;;;;;;;;34.80;99.50;;;;;;5092283;28;19908;-73
2023/08/23 10:52:40;;;;;;;;;;;34.80;98.80;;;;;;5091381;28;19995;-73
2023/08/23 10:55:06;;;;;;;;;;;34.80;98.00;;;;;;5097470;28;19994;-73
2023/08/23 10:57:31;;;;;;;;;;;34.90;98.50;;;;;;5092638;28;19908;-73
2023/08/23 10:59:57;;;;;;;;;;;34.80;96.60;;;;;;5095192;28;19905;-74
2023/08/23 11:02:22;;;;;;;;;;;34.80;98.90;;;;;;5095481;28;19911;-74
2023/08/23 11:04:48;;;;;;;;;;;34.80;98.70;;;;;;5092197;28;19904;-73
2023/08/23 11:07:14;;;;;;;;;;;35.00;96.40;;;;;;5094002;28;19908;-73
2023/08/23 11:09:40;;;;;;;;;;;35.10;97.00;;;;;;5094139;28;19927;-73
2023/08/23 11:12:06;;;;;;;;;;;35.20;96.80;;;;;;5094234;28;19912;-74
2023/08/23 11:14:32;;;;;;;;;;;35.30;96.30;;;;;;5094817;28;19915;-74
2023/08/23 11:16:57;;;;;;;;;;;35.30;95.30;;;;;;5092652;28;19904;-73
2023/08/23 11:19:23;;;;;;;;;;;35.20;94.70;;;;;;5094483;28;19903;-73
2023/08/23 11:21:49;;;;;;;;;;;35.30;95.40;;;;;;5097014;28;20272;-73
2023/08/23 11:24:14;;;;;;;;;;;35.30;95.70;;;;;;5096964;28;19919;-73
2023/08/23 11:26:40;;;;;;;;;;;35.30;95.50;;;;;;5096902;28;19920;-74
2023/08/23 11:29:05;;;;;;;;;;;35.30;95.50;;;;;;5095417;28;19911;-73
2023/08/23 11:31:35;;;;;;;;;;;35.30;95.90;;;;;;5094769;28;19908;-73
2023/08/23 11:34:05;;;;;;;;;;;35.30;93.40;;;;;;5096173;28;19908;-73
2023/08/23 11:36:31;;;;;;;;;;;35.40;93.80;;;;;;5092253;28;19916;-73
2023/08/23 11:38:59;;;;;;;;;;;35.40;93.30;;;;;;5094151;28;19908;-72
2023/08/23 11:41:33;;;;;;;;;;;35.40;91.80;;;;;;5095246;28;19948;-73
2023/08/23 11:44:05;;;;;;;;;;;35.60;92.60;;;;;;5085299;28;19912;-75
2023/08/23 11:46:33;;;;;;;;;;;35.60;91.80;;;;;;5091580;28;19908;-74
2023/08/23 11:49:02;;;;;;;;;;;35.80;91.00;;;;;;5089329;28;19904;-73
2023/08/23 11:51:36;;;;;;;;;;;35.80;88.10;;;;;;5085817;28;19909;-74
2023/08/23 11:54:04;;;;;;;;;;;35.90;89.10;;;;;;5093559;28;19905;-73
2023/08/23 11:56:29;;;;;;;;;;;36.00;89.90;;;;;;5092460;28;19911;-74
2023/08/23 11:58:55;;;;;;;;;;;36.00;88.10;;;;;;5093974;28;19991;-74
2023/08/23 12:01:21;;;;;;;;;;;36.10;86.60;;;;;;5096384;28;19914;-73
2023/08/23 12:03:47;;;;;;;;;;;36.10;88.90;;;;;;5086416;28;19904;-76
2023/08/23 12:06:12;;;;;;;;;;;36.20;89.20;;;;;;5092806;28;19904;-75
2023/08/23 12:08:38;;;;;;;;;;;36.20;89.10;;;;;;5092600;28;20384;-75
2023/08/23 12:11:03;;;;;;;;;;;36.20;86.30;;;;;;5094665;28;20491;-75
2023/08/23 12:13:29;;;;;;;;;;;36.30;80.00;;;;;;5093937;28;19911;-76
2023/08/23 12:15:54;;;;;;;;;;;36.40;80.20;;;;;;5092777;28;19904;-75
2023/08/23 12:18:21;;;;;;;;;;;36.60;78.50;;;;;;5094027;28;19998;-75
2023/08/23 12:20:46;;;;;;;;;;;36.80;80.20;;;;;;5090523;28;19915;-74
2023/08/23 12:23:12;;;;;;;;;;;36.90;80.30;;;;;;5095034;28;19904;-77
2023/08/23 12:25:37;;;;;;;;;;;37.10;75.40;;;;;;5092946;28;19912;-75
2023/08/23 12:28:03;;;;;;;;;;;37.10;74.80;;;;;;5093407;28;20355;-74
2023/08/23 12:30:30;;;;;;;;;;;37.30;75.60;;;;;;5093922;28;20386;-75
2023/08/23 12:32:55;;;;;;;;;;;37.40;80.00;;;;;;5093860;28;19943;-76
2023/08/23 12:35:21;;;;;;;;;;;37.40;79.40;;;;;;5095571;28;19911;-74
2023/08/23 12:37:47;;;;;;;;;;;37.50;76.00;;;;;;5095460;28;20003;-76
2023/08/23 12:40:12;;;;;;;;;;;37.60;74.10;;;;;;5092193;28;19939;-75
2023/08/23 12:42:38;;;;;;;;;;;37.60;73.90;;;;;;5094255;28;19961;-74
2023/08/23 12:45:04;;;;;;;;;;;37.70;74.00;;;;;;5092477;28;19911;-75
2023/08/23 12:47:29;;;;;;;;;;;37.70;73.70;;;;;;5092753;28;19912;-75
2023/08/23 12:49:55;;;;;;;;;;;37.70;72.90;;;;;;5092368;28;19904;-75
2023/08/23 12:52:21;;;;;;;;;;;37.70;73.80;;;;;;5093035;28;19904;-75
2023/08/23 12:54:46;;;;;;;;;;;37.80;73.40;;;;;;5091486;28;19919;-74
2023/08/23 12:57:12;;;;;;;;;;;37.90;75.00;;;;;;5094744;28;19908;-75
2023/08/23 12:59:37;;;;;;;;;;;38.10;72.80;;;;;;5091866;28;19908;-73
2023/08/23 13:02:03;;;;;;;;;;;38.20;72.80;;;;;;5093197;28;19908;-75
2023/08/23 13:04:29;;;;;;;;;;;38.30;72.20;;;;;;5093937;28;19904;-75
2023/08/23 13:06:54;;;;;;;;;;;38.20;72.40;;;;;;5092625;28;19969;-75
2023/08/23 13:09:20;;;;;;;;;;;38.10;72.30;;;;;;5092532;28;19977;-76
2023/08/23 13:11:45;;;;;;;;;;;38.10;73.90;;;;;;5091493;28;19915;-74
2023/08/23 13:14:11;;;;;;;;;;;38.10;70.90;;;;;;5093372;28;19907;-75
2023/08/23 13:16:37;;;;;;;;;;;38.20;69.70;;;;;;5095079;28;20331;-75
2023/08/23 13:19:02;;;;;;;;;;;38.20;71.00;;;;;;5091046;28;19908;-75
2023/08/23 13:21:28;;;;;;;;;;;38.30;70.00;;;;;;5093423;28;19908;-74
2023/08/23 13:23:57;;;;;;;;;;;38.40;70.00;;;;;;5093167;28;19908;-75
2023/08/23 13:26:23;;;;;;;;;;;38.40;70.20;;;;;;5092317;28;19993;-75
2023/08/23 13:28:49;;;;;;;;;;;38.40;71.20;;;;;;5092184;28;19920;-75
2023/08/23 13:31:15;;;;;;;;;;;38.20;71.80;;;;;;5090874;28;19923;-74
2023/08/23 13:33:40;;;;;;;;;;;38.10;70.60;;;;;;5094596;28;19908;-74
2023/08/23 13:36:06;;;;;;;;;;;38.30;67.80;;;;;;5093593;28;19965;-74
2023/08/23 13:38:31;;;;;;;;;;;38.50;67.80;;;;;;5093629;28;19904;-75
2023/08/23 13:40:57;;;;;;;;;;;38.70;67.90;;;;;;5091387;28;19956;-74
2023/08/23 13:43:22;;;;;;;;;;;38.90;65.80;;;;;;5093278;28;19904;-74
2023/08/23 13:45:48;;;;;;;;;;;39.00;67.50;;;;;;5089540;28;20384;-74
2023/08/23 13:48:13;;;;;;;;;;;38.90;69.60;;;;;;5088848;28;20303;-74
2023/08/23 13:50:39;;;;;;;;;;;39.00;66.10;;;;;;5094648;28;19908;-73
2023/08/23 13:53:04;;;;;;;;;;;39.20;63.60;;;;;;5089036;28;20313;-74
2023/08/23 13:55:30;;;;;;;;;;;39.50;65.50;;;;;;5093067;28;20261;-74
2023/08/23 13:57:56;;;;;;;;;;;39.60;64.20;;;;;;5091710;28;19904;-75
2023/08/23 14:00:21;;;;;;;;;;;39.60;62.80;;;;;;5089170;28;19961;-75
2023/08/23 14:02:47;;;;;;;;;;;39.60;63.40;;;;;;5090216;28;19916;-75
2023/08/23 14:05:12;;;;;;;;;;;39.60;62.30;;;;;;5093939;28;19904;-74
2023/08/23 14:07:38;;;;;;;;;;;39.60;62.20;;;;;;5087871;28;19932;-74
2023/08/23 14:10:03;;;;;;;;;;;39.60;65.20;;;;;;5092529;28;19995;-74